PAF1 OMAA-OPIS
Flight info
| Callsign | PAF1 |
|---|---|
| Flight time | N/A |
| Altitude | 35000 |
| Route | KANIP N318 LABRI/N0485F410 N318 EGROK DCT IVETO DCT MCT T500 VUSET DCT ASLOM R462 BIVIN/N0483F390 J132 PG G325 ATRIS J215 KALAT G325 PARLO J133 ZB Z304 DAMTO |
| Aircraft | C700/M-SBDGHM1RWXY/LB2 |
Departure
| Time | N/A |
|---|---|
| Airport | Zayed International Airport (OMAA) |
Arrival
| Time | 2026-04-22 17:46 |
|---|---|
| Airport | Islamabad International Airport (OPIS) |
| Time | Latitude | Longitude | Altitude | Speed | Heading |
|---|---|---|---|---|---|
| 2026-04-22 15:39 | 23.67480 | 58.47637 | 38562 ft | 506 kts | 62° |
| 2026-04-22 15:40 | 23.68843 | 58.51169 | 39081 ft | 503 kts | 62° |
| 2026-04-22 15:40 | 23.70195 | 58.54677 | 39527 ft | 502 kts | 62° |
| 2026-04-22 15:40 | 23.71550 | 58.58191 | 39922 ft | 501 kts | 62° |
| 2026-04-22 15:40 | 23.72903 | 58.61705 | 40319 ft | 501 kts | 62° |
| 2026-04-22 15:41 | 23.74247 | 58.65202 | 40684 ft | 500 kts | 62° |
| 2026-04-22 15:41 | 23.75603 | 58.68725 | 40766 ft | 507 kts | 63° |
| 2026-04-22 15:41 | 23.78367 | 58.75920 | 40782 ft | 522 kts | 63° |
| 2026-04-22 15:42 | 23.81101 | 58.83068 | 40791 ft | 526 kts | 63° |
| 2026-04-22 15:42 | 23.83888 | 58.90350 | 40787 ft | 521 kts | 63° |
| 2026-04-22 15:43 | 23.86680 | 58.97655 | 40786 ft | 521 kts | 63° |
| 2026-04-22 15:43 | 23.89478 | 59.04993 | 40797 ft | 524 kts | 63° |
| 2026-04-22 15:44 | 23.92274 | 59.12342 | 40803 ft | 522 kts | 63° |
| 2026-04-22 15:44 | 23.94838 | 59.18282 | 40806 ft | 518 kts | 59° |
| 2026-04-22 15:45 | 23.98002 | 59.25337 | 40801 ft | 517 kts | 59° |
| 2026-04-22 15:45 | 24.01157 | 59.32426 | 40798 ft | 519 kts | 59° |
| 2026-04-22 15:46 | 24.04324 | 59.39523 | 40807 ft | 519 kts | 59° |
| 2026-04-22 15:46 | 24.07476 | 59.46615 | 40809 ft | 518 kts | 59° |
| 2026-04-22 15:47 | 24.10628 | 59.53707 | 40809 ft | 518 kts | 59° |
| 2026-04-22 15:47 | 24.13768 | 59.60789 | 40809 ft | 517 kts | 59° |
| 2026-04-22 15:48 | 24.16901 | 59.67865 | 40811 ft | 516 kts | 59° |
| 2026-04-22 15:48 | 24.20027 | 59.74934 | 40803 ft | 516 kts | 60° |
| 2026-04-22 15:49 | 24.23150 | 59.82010 | 40802 ft | 516 kts | 60° |
| 2026-04-22 15:49 | 24.26276 | 59.89100 | 40806 ft | 516 kts | 60° |
| 2026-04-22 15:50 | 24.29392 | 59.96182 | 40812 ft | 516 kts | 60° |
| 2026-04-22 15:50 | 24.32491 | 60.03233 | 40813 ft | 517 kts | 60° |
| 2026-04-22 15:51 | 24.35628 | 60.10384 | 40811 ft | 517 kts | 60° |
| 2026-04-22 15:51 | 24.38720 | 60.17440 | 40819 ft | 516 kts | 60° |
| 2026-04-22 15:52 | 24.41825 | 60.24537 | 40813 ft | 515 kts | 60° |
| 2026-04-22 15:52 | 24.44916 | 60.31614 | 40815 ft | 514 kts | 60° |
| 2026-04-22 15:53 | 24.47999 | 60.38683 | 40811 ft | 512 kts | 60° |
| 2026-04-22 15:53 | 24.51055 | 60.45699 | 40813 ft | 513 kts | 60° |
| 2026-04-22 15:54 | 24.54135 | 60.52785 | 40823 ft | 515 kts | 60° |
| 2026-04-22 15:54 | 24.57221 | 60.59892 | 40824 ft | 516 kts | 60° |
| 2026-04-22 15:55 | 24.60300 | 60.67000 | 40823 ft | 515 kts | 61° |
| 2026-04-22 15:55 | 24.63375 | 60.74116 | 40823 ft | 514 kts | 61° |
| 2026-04-22 15:56 | 24.66435 | 60.81204 | 40819 ft | 512 kts | 61° |
| 2026-04-22 15:56 | 24.69475 | 60.88258 | 40817 ft | 509 kts | 61° |
| 2026-04-22 15:57 | 24.72412 | 60.95349 | 40829 ft | 511 kts | 63° |
| 2026-04-22 15:57 | 24.75325 | 61.02510 | 40823 ft | 514 kts | 63° |
| 2026-04-22 15:58 | 24.78222 | 61.09723 | 40823 ft | 513 kts | 63° |
| 2026-04-22 15:58 | 24.81102 | 61.16866 | 40821 ft | 509 kts | 63° |
| 2026-04-22 15:59 | 24.83837 | 61.23671 | 40824 ft | 511 kts | 63° |
| 2026-04-22 15:59 | 24.86721 | 61.30860 | 40827 ft | 514 kts | 63° |
| 2026-04-22 16:00 | 24.89608 | 61.38068 | 40832 ft | 514 kts | 63° |
| 2026-04-22 16:00 | 24.92490 | 61.45275 | 40831 ft | 513 kts | 63° |
| 2026-04-22 16:01 | 24.95386 | 61.52455 | 40827 ft | 512 kts | 62° |
| 2026-04-22 16:01 | 24.98312 | 61.59601 | 40826 ft | 511 kts | 63° |
| 2026-04-22 16:02 | 25.01206 | 61.66765 | 40828 ft | 511 kts | 63° |
| 2026-04-22 16:02 | 25.04110 | 61.73911 | 40827 ft | 510 kts | 63° |
| 2026-04-22 16:03 | 25.07484 | 61.80680 | 40818 ft | 504 kts | 49° |
| 2026-04-22 16:03 | 25.12116 | 61.86482 | 40824 ft | 500 kts | 43° |
| 2026-04-22 16:04 | 25.16771 | 61.92136 | 40829 ft | 501 kts | 44° |
| 2026-04-22 16:04 | 25.21455 | 61.97818 | 40837 ft | 501 kts | 44° |
| 2026-04-22 16:05 | 25.26155 | 62.03534 | 40830 ft | 501 kts | 44° |
| 2026-04-22 16:05 | 25.30846 | 62.09241 | 40826 ft | 501 kts | 44° |
| 2026-04-22 16:06 | 25.35531 | 62.14951 | 40833 ft | 501 kts | 44° |
| 2026-04-22 16:06 | 25.40213 | 62.20663 | 40829 ft | 501 kts | 44° |
| 2026-04-22 16:07 | 25.44896 | 62.26384 | 40834 ft | 501 kts | 44° |
| 2026-04-22 16:07 | 25.49566 | 62.32097 | 40835 ft | 500 kts | 44° |
| 2026-04-22 16:08 | 25.54207 | 62.37780 | 40834 ft | 500 kts | 44° |
| 2026-04-22 16:08 | 25.58873 | 62.43502 | 40830 ft | 500 kts | 44° |
| 2026-04-22 16:09 | 25.63537 | 62.49228 | 40835 ft | 501 kts | 44° |
| 2026-04-22 16:09 | 25.68208 | 62.54970 | 40821 ft | 502 kts | 44° |
| 2026-04-22 16:10 | 25.72891 | 62.60734 | 40827 ft | 504 kts | 44° |
| 2026-04-22 16:10 | 25.77584 | 62.66518 | 40830 ft | 503 kts | 44° |
| 2026-04-22 16:11 | 25.82253 | 62.72280 | 40828 ft | 501 kts | 44° |
| 2026-04-22 16:11 | 25.86897 | 62.78018 | 40829 ft | 498 kts | 44° |
| 2026-04-22 16:12 | 25.91536 | 62.83757 | 40827 ft | 500 kts | 44° |
| 2026-04-22 16:12 | 25.96198 | 62.89531 | 40835 ft | 503 kts | 45° |
| 2026-04-22 16:13 | 26.00832 | 62.95281 | 40838 ft | 501 kts | 45° |
| 2026-04-22 16:13 | 26.05480 | 63.01030 | 40841 ft | 499 kts | 45° |
| 2026-04-22 16:14 | 26.10109 | 63.06768 | 40848 ft | 499 kts | 45° |
| 2026-04-22 16:14 | 26.14760 | 63.12540 | 40850 ft | 501 kts | 45° |
| 2026-04-22 16:15 | 26.19420 | 63.18333 | 40857 ft | 503 kts | 45° |
| 2026-04-22 16:15 | 26.24095 | 63.24150 | 40864 ft | 503 kts | 45° |
| 2026-04-22 16:16 | 26.28745 | 63.29945 | 40864 ft | 501 kts | 45° |
| 2026-04-22 16:16 | 26.33385 | 63.35731 | 40862 ft | 500 kts | 45° |
| 2026-04-22 16:17 | 26.38039 | 63.41546 | 40861 ft | 503 kts | 45° |
| 2026-04-22 16:17 | 26.42706 | 63.47384 | 40869 ft | 505 kts | 45° |
| 2026-04-22 16:18 | 26.47342 | 63.53193 | 40868 ft | 503 kts | 45° |
| 2026-04-22 16:18 | 26.51981 | 63.59010 | 40870 ft | 501 kts | 45° |
| 2026-04-22 16:19 | 26.56603 | 63.64813 | 40862 ft | 500 kts | 45° |
| 2026-04-22 16:19 | 26.61244 | 63.70649 | 40866 ft | 503 kts | 45° |
| 2026-04-22 16:20 | 26.65899 | 63.76511 | 40868 ft | 506 kts | 45° |
| 2026-04-22 16:20 | 26.70578 | 63.82410 | 40866 ft | 508 kts | 45° |
| 2026-04-22 16:21 | 26.75263 | 63.88327 | 40870 ft | 505 kts | 45° |
| 2026-04-22 16:21 | 26.79909 | 63.94200 | 40868 ft | 503 kts | 45° |
| 2026-04-22 16:22 | 26.86831 | 64.02966 | 40877 ft | 505 kts | 46° |
| 2026-04-22 16:23 | 26.93811 | 64.11823 | 40878 ft | 505 kts | 46° |
| 2026-04-22 16:23 | 26.98621 | 64.17520 | 40873 ft | 502 kts | 42° |
| 2026-04-22 16:24 | 27.05952 | 64.25899 | 40882 ft | 501 kts | 43° |
| 2026-04-22 16:25 | 27.10845 | 64.31498 | 40876 ft | 504 kts | 43° |
| 2026-04-22 16:25 | 27.18217 | 64.39965 | 40881 ft | 507 kts | 43° |
| 2026-04-22 16:26 | 27.23132 | 64.45612 | 40880 ft | 504 kts | 43° |
| 2026-04-22 16:26 | 27.28022 | 64.51245 | 40871 ft | 502 kts | 43° |
| 2026-04-22 16:27 | 27.32900 | 64.56866 | 40871 ft | 502 kts | 43° |
| 2026-04-22 16:27 | 27.37789 | 64.62512 | 40873 ft | 504 kts | 43° |
| 2026-04-22 16:28 | 27.42661 | 64.68143 | 40856 ft | 506 kts | 43° |
| 2026-04-22 16:28 | 27.47583 | 64.73842 | 40863 ft | 507 kts | 43° |
| 2026-04-22 16:29 | 27.52484 | 64.79523 | 40861 ft | 504 kts | 43° |
| 2026-04-22 16:29 | 27.57360 | 64.85181 | 40840 ft | 502 kts | 43° |
| 2026-04-22 16:30 | 27.62238 | 64.90851 | 40841 ft | 506 kts | 43° |
| 2026-04-22 16:30 | 27.67149 | 64.96567 | 40823 ft | 508 kts | 43° |
| 2026-04-22 16:31 | 27.71221 | 65.01311 | 40808 ft | 506 kts | 43° |
| 2026-04-22 16:31 | 27.76107 | 65.07014 | 40822 ft | 505 kts | 44° |
| 2026-04-22 16:32 | 27.80998 | 65.12727 | 40812 ft | 506 kts | 44° |
| 2026-04-22 16:32 | 27.85897 | 65.18460 | 40814 ft | 508 kts | 44° |
| 2026-04-22 16:33 | 27.90815 | 65.24222 | 40836 ft | 509 kts | 44° |
| 2026-04-22 16:33 | 27.95729 | 65.29988 | 40810 ft | 508 kts | 44° |
| 2026-04-22 16:34 | 28.00620 | 65.35735 | 40804 ft | 505 kts | 44° |
| 2026-04-22 16:34 | 28.05494 | 65.41468 | 40823 ft | 506 kts | 44° |
| 2026-04-22 16:35 | 28.10384 | 65.47230 | 40809 ft | 509 kts | 44° |
| 2026-04-22 16:35 | 28.15265 | 65.52989 | 40829 ft | 511 kts | 44° |
| 2026-04-22 16:36 | 28.20179 | 65.58795 | 40830 ft | 509 kts | 44° |
| 2026-04-22 16:36 | 28.25072 | 65.64584 | 40838 ft | 507 kts | 44° |
| 2026-04-22 16:37 | 28.29935 | 65.70347 | 40836 ft | 505 kts | 44° |
| 2026-04-22 16:37 | 28.34800 | 65.76118 | 40862 ft | 507 kts | 44° |
| 2026-04-22 16:38 | 28.39696 | 65.81937 | 40858 ft | 510 kts | 44° |
| 2026-04-22 16:38 | 28.44595 | 65.87767 | 40880 ft | 510 kts | 44° |
| 2026-04-22 16:39 | 28.49492 | 65.93602 | 40874 ft | 509 kts | 44° |
| 2026-04-22 16:39 | 28.54342 | 65.99390 | 40873 ft | 509 kts | 45° |
| 2026-04-22 16:40 | 28.59225 | 66.05226 | 40904 ft | 509 kts | 45° |
| 2026-04-22 16:41 | 28.66542 | 66.13986 | 40928 ft | 510 kts | 45° |
| 2026-04-22 16:41 | 28.71426 | 66.19844 | 40929 ft | 510 kts | 45° |
| 2026-04-22 16:42 | 28.76314 | 66.25715 | 40954 ft | 510 kts | 45° |
| 2026-04-22 16:42 | 28.81179 | 66.31568 | 40948 ft | 507 kts | 45° |
| 2026-04-22 16:43 | 28.86021 | 66.37400 | 40951 ft | 507 kts | 45° |
| 2026-04-22 16:43 | 28.90878 | 66.43259 | 40968 ft | 510 kts | 45° |
| 2026-04-22 16:44 | 28.95758 | 66.49155 | 40967 ft | 512 kts | 45° |
| 2026-04-22 16:44 | 29.00637 | 66.55059 | 40978 ft | 509 kts | 45° |
| 2026-04-22 16:45 | 29.05486 | 66.60931 | 40970 ft | 506 kts | 45° |
| 2026-04-22 16:45 | 29.10346 | 66.66784 | 40974 ft | 508 kts | 45° |
| 2026-04-22 16:46 | 29.15185 | 66.72644 | 40972 ft | 511 kts | 45° |
| 2026-04-22 16:46 | 29.20074 | 66.78560 | 40965 ft | 512 kts | 45° |
| 2026-04-22 16:47 | 29.24955 | 66.84483 | 40962 ft | 509 kts | 45° |
| 2026-04-22 16:47 | 29.29806 | 66.90373 | 40939 ft | 508 kts | 45° |
| 2026-04-22 16:48 | 29.34645 | 66.96260 | 40937 ft | 507 kts | 45° |
| 2026-04-22 16:48 | 29.39482 | 67.02154 | 40939 ft | 508 kts | 45° |
| 2026-04-22 16:49 | 29.44336 | 67.08074 | 40912 ft | 511 kts | 45° |
| 2026-04-22 16:49 | 29.49175 | 67.13988 | 40915 ft | 510 kts | 45° |
| 2026-04-22 16:50 | 29.54058 | 67.19963 | 40865 ft | 508 kts | 45° |
| 2026-04-22 16:50 | 29.58849 | 67.25835 | 40865 ft | 506 kts | 45° |
| 2026-04-22 16:51 | 29.63654 | 67.31732 | 40821 ft | 505 kts | 45° |
| 2026-04-22 16:51 | 29.68456 | 67.37635 | 40824 ft | 507 kts | 45° |
| 2026-04-22 16:52 | 29.73280 | 67.43574 | 40797 ft | 509 kts | 45° |
| 2026-04-22 16:52 | 29.78134 | 67.49537 | 40814 ft | 510 kts | 45° |
| 2026-04-22 16:53 | 29.82979 | 67.55484 | 40782 ft | 508 kts | 45° |
| 2026-04-22 16:53 | 29.87786 | 67.61406 | 40805 ft | 504 kts | 45° |
| 2026-04-22 16:54 | 29.92591 | 67.67325 | 40808 ft | 507 kts | 45° |
| 2026-04-22 16:54 | 29.97419 | 67.73288 | 40802 ft | 510 kts | 45° |
| 2026-04-22 16:55 | 30.02250 | 67.79260 | 40846 ft | 507 kts | 45° |
| 2026-04-22 16:55 | 30.07038 | 67.85190 | 40851 ft | 504 kts | 45° |
| 2026-04-22 16:56 | 30.11835 | 67.91117 | 40851 ft | 507 kts | 45° |
| 2026-04-22 16:56 | 30.16694 | 67.97051 | 40909 ft | 509 kts | 45° |
| 2026-04-22 16:57 | 30.21535 | 68.03030 | 40901 ft | 508 kts | 45° |
| 2026-04-22 16:57 | 30.26372 | 68.08969 | 40903 ft | 507 kts | 45° |
| 2026-04-22 16:58 | 30.30380 | 68.13920 | 40932 ft | 507 kts | 45° |
| 2026-04-22 16:58 | 30.36018 | 68.20878 | 40927 ft | 507 kts | 45° |
| 2026-04-22 16:59 | 30.40821 | 68.26823 | 40919 ft | 503 kts | 45° |
| 2026-04-22 16:59 | 30.45596 | 68.32738 | 40931 ft | 503 kts | 45° |
| 2026-04-22 17:00 | 30.50384 | 68.38678 | 40941 ft | 506 kts | 45° |
| 2026-04-22 17:00 | 30.57572 | 68.47615 | 40922 ft | 507 kts | 45° |
| 2026-04-22 17:01 | 30.62382 | 68.53607 | 40919 ft | 507 kts | 45° |
| 2026-04-22 17:01 | 30.67166 | 68.59577 | 40909 ft | 502 kts | 45° |
| 2026-04-22 17:02 | 30.71921 | 68.65516 | 40911 ft | 502 kts | 45° |
| 2026-04-22 17:02 | 30.76694 | 68.71491 | 40915 ft | 506 kts | 45° |
| 2026-04-22 17:03 | 30.81483 | 68.77494 | 40917 ft | 505 kts | 45° |
| 2026-04-22 17:03 | 30.86259 | 68.83490 | 40922 ft | 504 kts | 45° |
| 2026-04-22 17:04 | 30.91013 | 68.89467 | 40913 ft | 501 kts | 45° |
| 2026-04-22 17:04 | 30.95710 | 68.95385 | 40918 ft | 501 kts | 45° |
| 2026-04-22 17:05 | 31.00479 | 69.01397 | 40921 ft | 503 kts | 46° |
| 2026-04-22 17:05 | 31.05230 | 69.07401 | 40922 ft | 504 kts | 46° |
| 2026-04-22 17:06 | 31.09959 | 69.13383 | 40920 ft | 504 kts | 46° |
| 2026-04-22 17:06 | 31.14702 | 69.19396 | 40921 ft | 503 kts | 46° |
| 2026-04-22 17:07 | 31.19441 | 69.25411 | 40925 ft | 503 kts | 46° |
| 2026-04-22 17:07 | 31.24178 | 69.31434 | 40920 ft | 503 kts | 46° |
| 2026-04-22 17:08 | 31.28918 | 69.37470 | 40920 ft | 504 kts | 46° |
| 2026-04-22 17:08 | 31.33658 | 69.43516 | 40917 ft | 504 kts | 46° |
| 2026-04-22 17:09 | 31.38018 | 69.49955 | 40912 ft | 506 kts | 53° |
| 2026-04-22 17:09 | 31.42120 | 69.56659 | 40919 ft | 505 kts | 52° |
| 2026-04-22 17:10 | 31.46172 | 69.63300 | 40913 ft | 504 kts | 53° |
| 2026-04-22 17:10 | 31.50233 | 69.69972 | 40916 ft | 502 kts | 53° |
| 2026-04-22 17:11 | 31.54299 | 69.76652 | 40900 ft | 504 kts | 53° |
| 2026-04-22 17:11 | 31.58368 | 69.83361 | 40893 ft | 505 kts | 53° |
| 2026-04-22 17:12 | 31.62527 | 69.90007 | 40892 ft | 505 kts | 51° |
| 2026-04-22 17:12 | 31.66689 | 69.96635 | 40853 ft | 504 kts | 52° |
| 2026-04-22 17:13 | 31.70824 | 70.03288 | 40831 ft | 504 kts | 52° |
| 2026-04-22 17:13 | 31.74978 | 70.09924 | 40812 ft | 505 kts | 52° |
| 2026-04-22 17:14 | 31.79115 | 70.16596 | 40812 ft | 506 kts | 52° |
| 2026-04-22 17:14 | 31.83262 | 70.23262 | 40773 ft | 503 kts | 52° |
| 2026-04-22 17:15 | 31.87366 | 70.29885 | 40773 ft | 500 kts | 52° |
| 2026-04-22 17:15 | 31.91470 | 70.36511 | 40757 ft | 502 kts | 52° |
| 2026-04-22 17:16 | 31.95561 | 70.43134 | 40763 ft | 504 kts | 52° |
| 2026-04-22 17:16 | 31.99685 | 70.49819 | 40761 ft | 505 kts | 52° |
| 2026-04-22 17:17 | 32.03806 | 70.56514 | 40762 ft | 502 kts | 52° |
| 2026-04-22 17:17 | 32.07213 | 70.62055 | 40762 ft | 497 kts | 52° |
| 2026-04-22 17:18 | 32.11284 | 70.68686 | 40760 ft | 500 kts | 52° |
| 2026-04-22 17:18 | 32.15349 | 70.75321 | 40769 ft | 503 kts | 52° |
| 2026-04-22 17:19 | 32.23492 | 70.88647 | 40774 ft | 498 kts | 52° |
| 2026-04-22 17:20 | 32.31660 | 71.02060 | 40776 ft | 503 kts | 52° |
| 2026-04-22 17:21 | 32.37755 | 71.12099 | 40772 ft | 499 kts | 52° |
| 2026-04-22 17:22 | 32.43835 | 71.22140 | 40773 ft | 502 kts | 52° |
| 2026-04-22 17:23 | 32.49921 | 71.32218 | 40496 ft | 505 kts | 52° |
| 2026-04-22 17:23 | 32.53928 | 71.38873 | 39190 ft | 484 kts | 53° |
| 2026-04-22 17:23 | 32.55861 | 71.42085 | 38561 ft | 474 kts | 53° |
| 2026-04-22 17:24 | 32.57760 | 71.45242 | 37889 ft | 466 kts | 53° |
| 2026-04-22 17:24 | 32.59627 | 71.48348 | 37284 ft | 462 kts | 53° |
| 2026-04-22 17:24 | 32.61511 | 71.51486 | 36674 ft | 471 kts | 53° |
| 2026-04-22 17:24 | 32.63417 | 71.54662 | 36055 ft | 481 kts | 53° |
| 2026-04-22 17:25 | 32.65373 | 71.57929 | 35413 ft | 482 kts | 53° |
| 2026-04-22 17:25 | 32.67314 | 71.61174 | 34773 ft | 480 kts | 53° |
| 2026-04-22 17:25 | 32.69242 | 71.64396 | 34145 ft | 478 kts | 53° |
| 2026-04-22 17:25 | 32.71134 | 71.67560 | 33495 ft | 477 kts | 53° |
| 2026-04-22 17:26 | 32.73089 | 71.70834 | 32857 ft | 480 kts | 53° |
| 2026-04-22 17:26 | 32.75036 | 71.74096 | 32219 ft | 486 kts | 53° |
| 2026-04-22 17:26 | 32.76997 | 71.77387 | 31585 ft | 489 kts | 53° |
| 2026-04-22 17:26 | 32.78970 | 71.80699 | 30936 ft | 492 kts | 53° |
| 2026-04-22 17:27 | 32.80947 | 71.84023 | 30286 ft | 494 kts | 54° |
| 2026-04-22 17:27 | 32.82931 | 71.87360 | 29609 ft | 495 kts | 54° |
| 2026-04-22 17:27 | 32.84884 | 71.90647 | 28958 ft | 488 kts | 54° |
| 2026-04-22 17:27 | 32.86828 | 71.93925 | 28318 ft | 481 kts | 54° |
| 2026-04-22 17:28 | 32.88743 | 71.97153 | 27700 ft | 476 kts | 54° |
| 2026-04-22 17:28 | 32.90533 | 72.00455 | 27067 ft | 474 kts | 61° |
| 2026-04-22 17:28 | 32.92049 | 72.03925 | 26453 ft | 471 kts | 62° |
| 2026-04-22 17:28 | 32.93564 | 72.07364 | 25835 ft | 468 kts | 62° |
| 2026-04-22 17:29 | 32.95081 | 72.10775 | 25219 ft | 463 kts | 62° |
| 2026-04-22 17:29 | 32.96573 | 72.14151 | 24618 ft | 458 kts | 62° |
| 2026-04-22 17:29 | 32.98038 | 72.17493 | 24019 ft | 454 kts | 62° |
| 2026-04-22 17:29 | 32.99494 | 72.20810 | 23424 ft | 450 kts | 62° |
| 2026-04-22 17:30 | 33.00939 | 72.24093 | 22783 ft | 445 kts | 62° |
| 2026-04-22 17:30 | 33.02367 | 72.27340 | 22203 ft | 439 kts | 62° |
| 2026-04-22 17:30 | 33.03771 | 72.30545 | 21627 ft | 433 kts | 62° |
| 2026-04-22 17:30 | 33.05156 | 72.33707 | 21058 ft | 429 kts | 62° |
| 2026-04-22 17:31 | 33.06530 | 72.36845 | 20501 ft | 423 kts | 63° |
| 2026-04-22 17:31 | 33.07850 | 72.39860 | 19943 ft | 378 kts | 63° |
| 2026-04-22 17:31 | 33.08932 | 72.42333 | 19481 ft | 310 kts | 63° |
| 2026-04-22 17:31 | 33.09877 | 72.44497 | 19215 ft | 280 kts | 63° |
| 2026-04-22 17:32 | 33.10786 | 72.46585 | 18982 ft | 295 kts | 63° |
| 2026-04-22 17:32 | 33.11792 | 72.48891 | 18427 ft | 322 kts | 63° |
| 2026-04-22 17:32 | 33.12820 | 72.51248 | 17920 ft | 318 kts | 63° |
| 2026-04-22 17:32 | 33.13830 | 72.53562 | 17473 ft | 311 kts | 63° |
| 2026-04-22 17:33 | 33.14486 | 72.55070 | 17209 ft | 306 kts | 63° |
| 2026-04-22 17:33 | 33.15771 | 72.58023 | 16762 ft | 295 kts | 63° |
| 2026-04-22 17:33 | 33.16703 | 72.60166 | 16439 ft | 287 kts | 63° |
| 2026-04-22 17:33 | 33.17612 | 72.62258 | 16123 ft | 281 kts | 63° |
| 2026-04-22 17:34 | 33.18504 | 72.64310 | 15804 ft | 276 kts | 63° |
| 2026-04-22 17:34 | 33.19382 | 72.66334 | 15478 ft | 272 kts | 63° |
| 2026-04-22 17:34 | 33.20239 | 72.68309 | 15150 ft | 270 kts | 62° |
| 2026-04-22 17:34 | 33.21097 | 72.70286 | 14816 ft | 268 kts | 63° |
| 2026-04-22 17:35 | 33.21950 | 72.72254 | 14483 ft | 266 kts | 62° |
| 2026-04-22 17:35 | 33.22798 | 72.74212 | 14145 ft | 265 kts | 62° |
| 2026-04-22 17:35 | 33.23644 | 72.76167 | 13807 ft | 264 kts | 62° |
| 2026-04-22 17:35 | 33.24486 | 72.78113 | 13446 ft | 264 kts | 62° |
| 2026-04-22 17:36 | 33.25326 | 72.80053 | 13094 ft | 262 kts | 63° |
| 2026-04-22 17:36 | 33.26159 | 72.81982 | 12762 ft | 260 kts | 63° |
| 2026-04-22 17:36 | 33.26986 | 72.83897 | 12441 ft | 259 kts | 63° |
| 2026-04-22 17:36 | 33.27810 | 72.85804 | 12110 ft | 257 kts | 63° |
| 2026-04-22 17:37 | 33.28627 | 72.87698 | 11778 ft | 257 kts | 63° |
| 2026-04-22 17:37 | 33.29436 | 72.89573 | 11582 ft | 250 kts | 63° |
| 2026-04-22 17:37 | 33.30228 | 72.91411 | 11322 ft | 248 kts | 63° |
| 2026-04-22 17:37 | 33.31018 | 72.93246 | 11018 ft | 248 kts | 63° |
| 2026-04-22 17:38 | 33.31810 | 72.95083 | 10696 ft | 249 kts | 63° |
| 2026-04-22 17:38 | 33.32603 | 72.96926 | 10358 ft | 250 kts | 63° |
| 2026-04-22 17:38 | 33.33397 | 72.98775 | 10029 ft | 250 kts | 63° |
| 2026-04-22 17:38 | 33.34194 | 73.00627 | 9683 ft | 250 kts | 63° |
| 2026-04-22 17:39 | 33.34989 | 73.02478 | 9340 ft | 250 kts | 63° |
| 2026-04-22 17:39 | 33.35783 | 73.04325 | 9009 ft | 248 kts | 63° |
| 2026-04-22 17:39 | 33.37351 | 73.07980 | 8372 ft | 246 kts | 63° |
| 2026-04-22 17:40 | 33.38292 | 73.09684 | 8051 ft | 246 kts | 47° |
| 2026-04-22 17:40 | 33.39621 | 73.10947 | 7737 ft | 245 kts | 29° |
| 2026-04-22 17:40 | 33.41186 | 73.11665 | 7418 ft | 244 kts | 11° |
| 2026-04-22 17:40 | 33.42863 | 73.11789 | 7098 ft | 242 kts | 353° |
| 2026-04-22 17:41 | 33.44482 | 73.11310 | 6778 ft | 240 kts | 335° |
| 2026-04-22 17:41 | 33.45899 | 73.10283 | 6472 ft | 237 kts | 318° |
| 2026-04-22 17:41 | 33.47104 | 73.08948 | 6150 ft | 236 kts | 315° |
| 2026-04-22 17:41 | 33.48316 | 73.07613 | 5827 ft | 236 kts | 315° |
| 2026-04-22 17:42 | 33.49527 | 73.06289 | 5515 ft | 236 kts | 316° |
| 2026-04-22 17:42 | 33.50693 | 73.04919 | 5201 ft | 234 kts | 307° |
| 2026-04-22 17:42 | 33.51493 | 73.03237 | 4899 ft | 232 kts | 293° |
| 2026-04-22 17:42 | 33.52052 | 73.01428 | 4594 ft | 231 kts | 283° |
| 2026-04-22 17:43 | 33.52363 | 72.99542 | 4289 ft | 230 kts | 278° |
| 2026-04-22 17:43 | 33.52644 | 72.97656 | 3984 ft | 230 kts | 280° |
| 2026-04-22 17:43 | 33.52950 | 72.95776 | 3726 ft | 225 kts | 280° |
| 2026-04-22 17:43 | 33.53208 | 72.94036 | 3624 ft | 208 kts | 280° |
| 2026-04-22 17:44 | 33.53450 | 72.92555 | 3410 ft | 165 kts | 281° |
| 2026-04-22 17:44 | 33.53646 | 72.91244 | 2890 ft | 161 kts | 281° |
| 2026-04-22 17:44 | 33.53825 | 72.90019 | 2695 ft | 141 kts | 281° |
| 2026-04-22 17:44 | 33.53977 | 72.88917 | 2447 ft | 125 kts | 280° |
| 2026-04-22 17:45 | 33.54125 | 72.87815 | 2395 ft | 147 kts | 281° |
| 2026-04-22 17:45 | 33.54349 | 72.86680 | 2223 ft | 133 kts | 285° |
| 2026-04-22 17:45 | 33.54533 | 72.85604 | 1984 ft | 130 kts | 279° |
| 2026-04-22 17:45 | 33.54687 | 72.84554 | 1798 ft | 126 kts | 281° |
| 2026-04-22 17:46 | 33.54838 | 72.83612 | 1753 ft | 91 kts | 281° |
| 2026-04-22 17:46 | 33.54921 | 72.83076 | 1757 ft | 52 kts | 280° |
| 2026-04-22 17:46 | 33.54982 | 72.82694 | 1750 ft | 32 kts | 280° |
| 2026-04-22 17:46 | 33.55022 | 72.82473 | 1753 ft | 15 kts | 302° |
| 2026-04-22 17:47 | 33.55106 | 72.82454 | 1758 ft | 11 kts | 9° |
| 2026-04-22 17:47 | 33.55178 | 72.82467 | 1764 ft | 11 kts | 355° |
| 2026-04-22 17:47 | 33.55221 | 72.82399 | 1763 ft | 12 kts | 283° |
| 2026-04-22 17:47 | 33.55240 | 72.82281 | 1765 ft | 16 kts | 279° |
| 2026-04-22 17:48 | 33.55254 | 72.82184 | 1765 ft | 19 kts | 282° |
| 2026-04-22 17:48 | 33.55281 | 72.82015 | 1762 ft | 4 kts | 279° |
| 2026-04-22 17:48 | 33.55292 | 72.81950 | 1762 ft | 9 kts | 290° |
| 2026-04-22 17:48 | 33.55308 | 72.81943 | 1763 ft | 0 kts | 24° |
| 2026-04-22 17:49 | 33.55336 | 72.81950 | 1765 ft | 6 kts | 10° |
| 2026-04-22 17:49 | 33.55385 | 72.81961 | 1765 ft | 9 kts | 13° |
| 2026-04-22 17:50 | 33.55395 | 72.81963 | 1766 ft | 0 kts | 6° |